createdAt,value
2023-01-11T00:09:16.153Z,26.80
2023-01-11T00:31:02.343Z,22.80
2023-01-11T00:52:48.040Z,23.20
2023-01-11T01:14:34.157Z,21.60
2023-01-11T01:36:19.898Z,19.30
2023-01-11T01:58:12.924Z,18.50
2023-01-11T04:01:12.387Z,19.00
2023-01-11T04:22:55.553Z,17.00
2023-01-11T04:44:38.674Z,21.10
2023-01-11T05:06:22.125Z,16.90
2023-01-11T05:28:05.950Z,19.80
2023-01-11T05:49:49.061Z,14.70
2023-01-11T06:11:32.145Z,12.70
2023-01-11T06:33:15.489Z,14.10
2023-01-11T06:54:58.625Z,13.70
2023-01-11T07:16:43.211Z,10.90
2023-01-11T07:38:30.012Z,11.00
2023-01-11T08:00:15.399Z,14.60
2023-01-11T08:22:06.494Z,12.70
2023-01-11T08:43:50.170Z,16.30
2023-01-11T09:05:35.240Z,11.90
2023-01-11T09:27:19.305Z,13.70
2023-01-11T09:49:04.391Z,13.30
2023-01-11T10:33:17.756Z,15.60
2023-01-11T10:55:02.448Z,15.10
2023-01-11T11:16:59.209Z,12.00
2023-01-11T11:39:00.322Z,10.20
2023-01-11T12:00:48.351Z,10.30
2023-01-11T12:22:31.491Z,10.70
2023-01-11T12:44:52.194Z,10.80
2023-01-11T13:06:40.951Z,11.40
2023-01-11T13:28:34.443Z,13.10
2023-01-11T13:50:24.703Z,11.40
2023-01-11T14:12:23.894Z,18.40
2023-01-11T14:34:47.517Z,13.80
2023-01-11T14:56:47.885Z,14.80
2023-01-11T15:18:32.489Z,10.80
2023-01-11T15:40:20.234Z,14.60
2023-01-11T16:02:36.136Z,16.10
2023-01-11T16:24:24.746Z,19.40
2023-01-11T16:46:28.373Z,10.90
2023-01-11T17:08:28.064Z,14.50
2023-01-11T17:30:18.005Z,15.20
2023-01-11T17:52:10.281Z,15.10
2023-01-11T18:13:55.216Z,15.30
2023-01-11T18:35:45.478Z,13.60
2023-01-11T18:57:29.740Z,14.00
2023-01-11T19:19:13.002Z,15.90
2023-01-11T19:41:05.242Z,10.30
2023-01-11T20:02:51.397Z,11.80
2023-01-11T20:46:32.418Z,14.60
2023-01-11T21:08:16.408Z,11.10
2023-01-11T21:30:00.694Z,14.70
2023-01-11T21:51:43.856Z,12.40
2023-01-11T22:13:29.342Z,11.50
2023-01-11T22:35:13.223Z,15.10
2023-01-11T22:56:57.993Z,14.20
2023-01-11T23:18:50.892Z,13.20
2023-01-11T23:40:57.601Z,15.20
